createdAt,value
2023-04-14T00:03:43.601Z,73.50
2023-04-14T00:07:48.181Z,73.19
2023-04-14T00:11:51.596Z,73.49
2023-04-14T00:15:55.182Z,73.47
2023-04-14T00:19:58.566Z,73.65
2023-04-14T00:24:03.133Z,73.29
2023-04-14T00:28:07.108Z,73.53
2023-04-14T00:32:10.598Z,73.76
2023-04-14T00:36:13.916Z,73.21
2023-04-14T00:40:18.652Z,73.40
2023-04-14T00:44:23.064Z,73.28
2023-04-14T00:48:26.150Z,73.51
2023-04-14T00:52:29.525Z,73.32
2023-04-14T00:56:35.239Z,73.73
2023-04-14T01:00:39.542Z,73.26
2023-04-14T01:04:53.795Z,73.58
2023-04-14T01:08:58.271Z,73.69
2023-04-14T01:13:22.830Z,73.38
2023-04-14T01:17:34.099Z,73.20
2023-04-14T01:21:42.968Z,73.77
2023-04-14T01:26:08.792Z,73.51
2023-04-14T01:30:29.973Z,73.68
2023-04-14T01:34:39.371Z,72.58
2023-04-14T01:38:44.118Z,73.04
2023-04-14T01:42:51.651Z,72.16
2023-04-14T01:46:57.785Z,72.08
2023-04-14T01:51:04.822Z,72.06
2023-04-14T01:55:10.685Z,72.51
2023-04-14T01:59:16.042Z,72.93
2023-04-14T02:03:20.740Z,72.24
2023-04-14T02:07:27.398Z,73.12
2023-04-14T02:11:32.106Z,72.95
2023-04-14T02:15:37.492Z,73.18
2023-04-14T02:19:44.045Z,73.25
2023-04-14T02:23:49.168Z,72.72
2023-04-14T02:27:57.473Z,72.76
2023-04-14T02:32:05.010Z,73.00
2023-04-14T02:36:15.410Z,72.91
2023-04-14T02:40:26.050Z,72.88
2023-04-14T02:44:33.896Z,72.75
2023-04-14T02:48:38.552Z,73.20
2023-04-14T02:52:42.404Z,72.96
2023-04-14T02:56:48.032Z,73.46
2023-04-14T03:00:52.043Z,73.50
2023-04-14T03:04:56.574Z,73.22
2023-04-14T03:09:01.971Z,73.56
2023-04-14T03:13:09.230Z,73.97
2023-04-14T03:17:14.956Z,73.47
2023-04-14T03:21:19.921Z,73.98
2023-04-14T03:25:23.075Z,74.02
2023-04-14T03:29:30.658Z,74.18
2023-04-14T03:33:34.118Z,73.60
2023-04-14T03:37:41.663Z,74.01
2023-04-14T03:41:49.351Z,73.33
2023-04-14T03:45:54.335Z,73.81
2023-04-14T03:50:01.373Z,73.42
2023-04-14T03:54:07.695Z,73.92
2023-04-14T03:58:13.495Z,73.46
2023-04-14T04:02:21.385Z,74.23
2023-04-14T04:06:25.998Z,73.97
2023-04-14T04:10:31.760Z,73.57
2023-04-14T04:14:39.044Z,73.56
2023-04-14T04:18:50.976Z,73.92
2023-04-14T04:22:58.186Z,74.12
2023-04-14T04:27:01.720Z,73.91
2023-04-14T04:31:07.290Z,74.18
2023-04-14T04:35:13.140Z,74.35
2023-04-14T04:39:16.257Z,74.03
2023-04-14T04:43:19.644Z,74.44
2023-04-14T04:47:23.747Z,74.17
2023-04-14T04:51:29.243Z,74.01
2023-04-14T04:55:32.399Z,73.95
2023-04-14T04:59:38.356Z,73.86
2023-04-14T05:03:42.287Z,73.89
2023-04-14T05:07:46.996Z,73.70
2023-04-14T05:11:50.584Z,74.04
2023-04-14T05:15:53.951Z,74.42
2023-04-14T05:19:57.853Z,74.00
2023-04-14T05:24:02.654Z,74.08
2023-04-14T05:28:05.992Z,74.30
2023-04-14T05:32:09.862Z,74.10
2023-04-14T05:36:12.938Z,74.09
2023-04-14T05:40:18.526Z,74.10
2023-04-14T05:44:22.785Z,74.12
2023-04-14T05:48:29.485Z,74.43
2023-04-14T05:52:32.998Z,74.81
2023-04-14T05:56:38.626Z,74.41
2023-04-14T06:00:41.486Z,74.59
2023-04-14T06:04:45.230Z,74.72
2023-04-14T06:08:48.943Z,74.61
2023-04-14T06:12:53.827Z,74.40
2023-04-14T06:16:57.805Z,74.56
2023-04-14T06:21:01.623Z,74.56
2023-04-14T06:25:05.321Z,74.64
2023-04-14T06:29:10.699Z,74.13
2023-04-14T06:33:13.854Z,74.54
2023-04-14T06:37:18.126Z,74.23
2023-04-14T06:41:21.280Z,74.57
2023-04-14T06:45:26.564Z,74.52
2023-04-14T06:49:29.645Z,74.59
2023-04-14T06:53:33.564Z,74.34
2023-04-14T06:57:36.909Z,74.88
2023-04-14T07:01:43.148Z,74.71
2023-04-14T07:05:46.809Z,74.82
2023-04-14T07:09:50.447Z,74.28
2023-04-14T07:13:53.632Z,74.56
2023-04-14T07:18:00.019Z,74.35
2023-04-14T07:22:03.244Z,73.57
2023-04-14T07:26:07.666Z,73.43
2023-04-14T07:30:12.065Z,72.90
2023-04-14T07:34:18.921Z,72.36
2023-04-14T07:38:22.140Z,72.89
2023-04-14T07:42:25.473Z,72.93
2023-04-14T07:46:28.740Z,73.18
2023-04-14T07:50:33.772Z,72.86
2023-04-14T07:54:36.863Z,72.35
2023-04-14T07:58:40.762Z,71.93
2023-04-14T08:02:44.040Z,72.15
2023-04-14T08:06:49.140Z,72.18
2023-04-14T08:10:52.198Z,72.35
2023-04-14T08:14:57.348Z,73.02
2023-04-14T08:19:00.656Z,72.43
2023-04-14T08:23:07.328Z,72.73
2023-04-14T08:27:10.597Z,73.24
2023-04-14T08:31:13.970Z,72.36
2023-04-14T08:35:39.387Z,72.19
2023-04-14T08:39:42.381Z,71.86
2023-04-14T08:43:46.487Z,72.17
2023-04-14T08:47:54.588Z,72.74
2023-04-14T08:52:00.838Z,73.29
2023-04-14T08:56:09.747Z,72.36
2023-04-14T09:00:14.363Z,72.99
2023-04-14T09:04:21.084Z,72.96
2023-04-14T09:08:25.119Z,72.27
2023-04-14T09:12:32.557Z,72.05
2023-04-14T09:16:36.417Z,72.51
2023-04-14T09:20:41.598Z,72.75
2023-04-14T09:24:45.483Z,72.71
2023-04-14T09:28:50.484Z,72.26
2023-04-14T09:32:54.584Z,72.58
2023-04-14T09:37:03.850Z,72.66
2023-04-14T09:41:07.595Z,72.83
2023-04-14T09:45:13.667Z,72.61
2023-04-14T09:49:17.202Z,73.10
2023-04-14T09:53:28.064Z,72.82
2023-04-14T09:57:31.591Z,73.27
2023-04-14T10:01:36.895Z,72.53
2023-04-14T10:05:40.316Z,72.56
2023-04-14T10:09:43.799Z,72.92
2023-04-14T10:13:47.449Z,73.16
2023-04-14T10:17:52.830Z,72.80
2023-04-14T10:21:56.165Z,72.98
2023-04-14T10:26:00.304Z,73.32
2023-04-14T10:30:04.165Z,72.92
2023-04-14T10:34:14.166Z,72.75
2023-04-14T10:38:17.522Z,72.25
2023-04-14T10:42:21.291Z,72.35
2023-04-14T10:46:24.960Z,72.25
2023-04-14T10:50:32.302Z,72.65
2023-04-14T10:54:51.505Z,72.48
2023-04-14T10:58:59.692Z,72.25
2023-04-14T11:03:05.970Z,72.68
2023-04-14T11:07:11.722Z,72.58
2023-04-14T11:11:18.740Z,72.10
2023-04-14T11:15:22.578Z,71.46
2023-04-14T11:23:31.699Z,71.20
2023-04-14T11:27:35.136Z,71.12
2023-04-14T11:31:38.717Z,71.40
2023-04-14T11:35:44.269Z,72.33
2023-04-14T11:39:49.515Z,71.79
2023-04-14T11:43:53.033Z,71.78
2023-04-14T11:48:01.486Z,72.49
2023-04-14T11:52:10.561Z,71.32
2023-04-14T11:56:15.782Z,70.17
2023-04-14T12:00:19.441Z,71.52
2023-04-14T12:04:23.011Z,71.51
2023-04-14T12:08:26.168Z,70.94
2023-04-14T12:12:34.368Z,70.50
2023-04-14T12:16:38.507Z,71.54
2023-04-14T12:20:47.236Z,71.52
2023-04-14T12:24:50.681Z,71.34
2023-04-14T12:28:59.213Z,70.76
2023-04-14T12:37:09.114Z,71.62
2023-04-14T12:41:12.358Z,72.01
2023-04-14T12:45:18.405Z,71.16
2023-04-14T12:49:31.916Z,71.49
2023-04-14T12:53:38.750Z,71.63
2023-04-14T12:57:43.269Z,71.28
2023-04-14T13:01:48.079Z,71.50
2023-04-14T13:05:51.890Z,71.40
2023-04-14T13:09:55.074Z,71.34
2023-04-14T13:13:58.568Z,71.67
2023-04-14T13:18:03.117Z,71.68
2023-04-14T13:22:06.108Z,71.70
2023-04-14T13:26:10.129Z,71.26
2023-04-14T13:30:16.614Z,71.61
2023-04-14T13:34:21.009Z,71.51
2023-04-14T13:38:24.193Z,71.61
2023-04-14T13:42:27.761Z,72.16
2023-04-14T13:46:40.492Z,72.12
2023-04-14T13:50:46.741Z,71.95
2023-04-14T13:54:50.300Z,71.87
2023-04-14T13:58:55.982Z,71.88
2023-04-14T14:02:59.605Z,71.75
2023-04-14T14:07:04.608Z,71.86
2023-04-14T14:11:07.953Z,72.10
2023-04-14T14:15:12.563Z,73.05
2023-04-14T14:19:17.269Z,72.73
2023-04-14T14:23:22.474Z,72.50
2023-04-14T14:27:26.993Z,72.31
2023-04-14T14:31:30.422Z,72.32
2023-04-14T14:35:33.789Z,72.01
2023-04-14T14:39:38.572Z,72.22
2023-04-14T14:43:42.139Z,72.38
2023-04-14T14:47:48.706Z,72.69
2023-04-14T14:51:52.616Z,73.68
2023-04-14T14:55:57.227Z,73.93
2023-04-14T15:00:00.557Z,74.23
2023-04-14T15:04:08.463Z,74.04
2023-04-14T15:08:13.636Z,74.05
2023-04-14T15:12:20.361Z,73.36
2023-04-14T15:16:23.618Z,72.80
2023-04-14T15:20:26.964Z,73.48
2023-04-14T15:24:30.160Z,73.29
2023-04-14T15:28:36.129Z,72.96
2023-04-14T15:32:39.511Z,72.61
2023-04-14T15:36:43.109Z,72.73
2023-04-14T15:40:46.331Z,72.83
2023-04-14T15:44:52.264Z,72.41
2023-04-14T15:48:56.002Z,72.84
2023-04-14T15:52:59.221Z,72.55
2023-04-14T15:57:04.780Z,72.60
2023-04-14T16:01:10.610Z,72.45
2023-04-14T16:05:15.117Z,72.58
2023-04-14T16:09:18.539Z,72.72
2023-04-14T16:13:22.222Z,72.72
2023-04-14T16:17:27.047Z,72.68
2023-04-14T16:21:30.307Z,72.48
2023-04-14T16:25:35.208Z,72.16
2023-04-14T16:29:39.036Z,72.48
2023-04-14T16:33:43.961Z,72.78
2023-04-14T16:37:47.249Z,72.76
2023-04-14T16:41:51.994Z,72.93
2023-04-14T16:45:55.546Z,72.71
2023-04-14T16:50:00.798Z,73.05
2023-04-14T16:54:05.166Z,73.09
2023-04-14T16:58:10.090Z,73.31
2023-04-14T17:02:13.550Z,73.50
2023-04-14T17:06:19.296Z,73.68
2023-04-14T17:10:23.011Z,73.46
2023-04-14T17:14:27.492Z,73.62
2023-04-14T17:18:31.423Z,73.82
2023-04-14T17:22:37.559Z,73.87
2023-04-14T17:26:40.558Z,73.90
2023-04-14T17:30:44.371Z,74.07
2023-04-14T17:34:50.169Z,74.13
2023-04-14T17:38:55.188Z,73.92
2023-04-14T17:43:04.449Z,74.06
2023-04-14T17:47:13.770Z,73.93
2023-04-14T17:51:18.867Z,73.85
2023-04-14T17:55:23.928Z,73.37
2023-04-14T17:59:27.190Z,73.59
2023-04-14T18:03:31.053Z,73.68
2023-04-14T18:07:34.705Z,73.57
2023-04-14T18:11:40.341Z,73.36
2023-04-14T18:15:44.806Z,73.66
2023-04-14T18:19:48.415Z,73.97
2023-04-14T18:28:03.913Z,74.00
2023-04-14T18:32:07.384Z,74.12
2023-04-14T18:36:10.922Z,74.18
2023-04-14T18:40:16.906Z,74.00
2023-04-14T18:44:24.645Z,74.45
2023-04-14T18:48:27.705Z,74.35
2023-04-14T18:52:31.187Z,74.49
2023-04-14T18:56:35.685Z,74.57
2023-04-14T19:00:40.895Z,74.39
2023-04-14T19:04:44.968Z,74.71
2023-04-14T19:08:48.427Z,74.51
2023-04-14T19:12:51.653Z,74.40
2023-04-14T19:16:56.726Z,74.69
2023-04-14T19:21:00.192Z,74.82
2023-04-14T19:25:04.440Z,74.45
2023-04-14T19:29:10.321Z,74.74
2023-04-14T19:33:15.713Z,74.66
2023-04-14T19:37:18.900Z,74.67
2023-04-14T19:41:22.088Z,74.64
2023-04-14T19:45:25.175Z,74.90
2023-04-14T19:49:32.938Z,74.86
2023-04-14T19:53:36.542Z,74.58
2023-04-14T19:57:39.841Z,74.92
2023-04-14T20:01:45.444Z,74.83
2023-04-14T20:05:53.064Z,74.92
2023-04-14T20:09:56.440Z,74.92
2023-04-14T20:14:00.709Z,74.90
2023-04-14T20:18:09.293Z,74.67
2023-04-14T20:22:15.225Z,74.29
2023-04-14T20:26:18.285Z,74.36
2023-04-14T20:30:22.382Z,74.14
2023-04-14T20:34:25.837Z,74.37
2023-04-14T20:38:30.935Z,74.00
2023-04-14T20:42:36.103Z,74.15
2023-04-14T20:46:40.018Z,74.12
2023-04-14T20:50:44.566Z,73.93
2023-04-14T20:54:51.829Z,74.03
2023-04-14T20:58:55.055Z,74.16
2023-04-14T21:02:58.952Z,74.09
2023-04-14T21:07:02.565Z,74.35
2023-04-14T21:11:17.146Z,74.44
2023-04-14T21:15:47.056Z,74.68
2023-04-14T21:19:45.085Z,74.67
2023-04-14T21:23:49.204Z,74.65
2023-04-14T21:27:54.617Z,74.72
2023-04-14T21:31:58.492Z,74.77
2023-04-14T21:36:02.969Z,74.59
2023-04-14T21:40:10.242Z,74.61
2023-04-14T21:44:16.129Z,74.81
2023-04-14T21:48:21.124Z,74.45
2023-04-14T21:52:25.646Z,74.61
2023-04-14T21:56:29.566Z,74.44
2023-04-14T22:00:34.524Z,74.25
2023-04-14T22:04:38.657Z,74.10
2023-04-14T22:08:42.813Z,74.01
2023-04-14T22:12:48.293Z,74.31
2023-04-14T22:16:54.275Z,74.32
2023-04-14T22:20:57.452Z,74.30
2023-04-14T22:25:00.681Z,74.01
2023-04-14T22:29:04.468Z,73.94
2023-04-14T22:33:11.400Z,74.12
2023-04-14T22:37:15.093Z,74.14
2023-04-14T22:41:20.416Z,74.27
2023-04-14T22:45:23.702Z,74.30
2023-04-14T22:49:28.867Z,74.61
2023-04-14T22:53:34.630Z,74.89
2023-04-14T22:57:39.004Z,74.63
2023-04-14T23:01:42.662Z,74.96
2023-04-14T23:05:47.434Z,75.24
2023-04-14T23:09:51.993Z,74.83
2023-04-14T23:13:55.209Z,75.13
2023-04-14T23:17:59.604Z,74.81
2023-04-14T23:22:04.854Z,74.84
2023-04-14T23:26:10.012Z,74.71
2023-04-14T23:30:13.962Z,74.74
2023-04-14T23:34:17.092Z,74.94
2023-04-14T23:38:22.029Z,74.90
2023-04-14T23:42:25.511Z,75.16
2023-04-14T23:46:28.981Z,74.71
2023-04-14T23:51:01.319Z,74.91
2023-04-14T23:54:58.732Z,74.68
2023-04-14T23:59:02.513Z,74.69
